createdAt,value
2023-05-09T00:00:20.288Z,35.84
2023-05-09T00:02:22.283Z,35.84
2023-05-09T00:04:25.056Z,35.46
2023-05-09T00:06:28.448Z,35.73
2023-05-09T00:08:29.894Z,35.34
2023-05-09T00:10:31.487Z,35.67
2023-05-09T00:12:33.023Z,35.67
2023-05-09T00:14:34.593Z,35.47
2023-05-09T00:16:36.805Z,35.51
2023-05-09T00:18:38.261Z,35.37
2023-05-09T00:20:40.927Z,35.53
2023-05-09T00:22:42.436Z,35.49
2023-05-09T00:24:44.010Z,35.53
2023-05-09T00:26:45.422Z,35.68
2023-05-09T00:28:46.801Z,35.49
2023-05-09T00:30:48.202Z,35.55
2023-05-09T00:32:49.772Z,35.59
2023-05-09T00:34:51.270Z,35.36
2023-05-09T00:36:52.668Z,35.58
2023-05-09T00:38:54.154Z,35.43
2023-05-09T00:40:56.112Z,35.45
2023-05-09T00:42:58.938Z,35.08
2023-05-09T00:45:00.458Z,35.46
2023-05-09T00:47:01.937Z,35.68
2023-05-09T00:49:04.426Z,35.42
2023-05-09T00:51:06.139Z,35.48
2023-05-09T00:53:08.616Z,35.25
2023-05-09T00:55:10.528Z,35.29
2023-05-09T00:57:11.949Z,35.49
2023-05-09T00:59:13.653Z,35.45
2023-05-09T01:01:16.681Z,35.48
2023-05-09T01:03:18.475Z,35.44
2023-05-09T01:05:20.347Z,35.44
2023-05-09T01:07:24.989Z,35.48
2023-05-09T01:09:43.633Z,35.48
2023-05-09T01:12:11.223Z,35.08
2023-05-09T01:14:12.584Z,35.36
2023-05-09T01:16:15.432Z,35.30
2023-05-09T01:18:26.405Z,35.24
2023-05-09T01:20:38.114Z,35.36
2023-05-09T01:22:43.171Z,35.40
2023-05-09T01:24:50.832Z,35.30
2023-05-09T01:27:12.271Z,35.15
2023-05-09T01:29:25.921Z,35.21
2023-05-09T01:31:28.488Z,35.33
2023-05-09T01:33:32.764Z,35.38
2023-05-09T01:35:36.161Z,35.29
2023-05-09T01:37:39.790Z,34.82
2023-05-09T01:39:44.911Z,35.16
2023-05-09T01:41:46.307Z,35.20
2023-05-09T01:43:49.504Z,35.35
2023-05-09T01:45:51.798Z,35.06
2023-05-09T01:47:53.883Z,35.26
2023-05-09T01:49:56.259Z,34.92
2023-05-09T01:51:58.305Z,35.15
2023-05-09T01:54:00.317Z,35.21
2023-05-09T01:56:03.038Z,35.21
2023-05-09T01:58:05.653Z,35.27
2023-05-09T02:00:08.977Z,35.28
2023-05-09T02:02:11.012Z,35.28
2023-05-09T02:04:13.479Z,35.12
2023-05-09T02:06:16.149Z,34.98
2023-05-09T02:08:21.104Z,35.18
2023-05-09T02:10:22.777Z,35.27
2023-05-09T02:12:24.521Z,35.32
2023-05-09T02:14:26.688Z,35.14
2023-05-09T02:16:28.433Z,35.08
2023-05-09T02:18:29.889Z,35.22
2023-05-09T02:20:31.557Z,35.06
2023-05-09T02:22:33.033Z,35.07
2023-05-09T02:24:35.155Z,35.14
2023-05-09T02:26:36.713Z,35.22
2023-05-09T02:28:38.833Z,34.95
2023-05-09T02:30:42.125Z,35.19
2023-05-09T02:32:45.492Z,35.10
2023-05-09T02:34:48.181Z,35.15
2023-05-09T02:36:49.675Z,35.08
2023-05-09T02:38:51.482Z,35.17
2023-05-09T02:40:53.034Z,34.72
2023-05-09T02:42:54.579Z,35.19
2023-05-09T02:44:56.443Z,35.01
2023-05-09T02:46:57.837Z,35.13
2023-05-09T02:48:59.447Z,34.81
2023-05-09T02:51:00.879Z,35.15
2023-05-09T02:53:02.283Z,35.17
2023-05-09T02:55:03.986Z,34.96
2023-05-09T02:57:05.694Z,35.03
2023-05-09T02:59:07.294Z,34.75
2023-05-09T03:01:08.771Z,34.94
2023-05-09T03:03:10.804Z,34.80
2023-05-09T03:05:12.873Z,34.90
2023-05-09T03:07:17.167Z,35.00
2023-05-09T03:09:18.541Z,35.20
2023-05-09T03:11:20.278Z,34.99
2023-05-09T03:13:21.796Z,35.22
2023-05-09T03:15:23.273Z,34.75
2023-05-09T03:17:25.198Z,34.96
2023-05-09T03:19:26.652Z,35.27
2023-05-09T03:21:28.033Z,35.21
2023-05-09T03:23:29.432Z,35.11
2023-05-09T03:25:31.072Z,35.02
2023-05-09T03:27:32.477Z,35.10
2023-05-09T03:29:34.050Z,35.30
2023-05-09T03:31:36.040Z,35.28
2023-05-09T03:33:37.595Z,35.24
2023-05-09T03:35:39.158Z,35.17
2023-05-09T03:37:40.889Z,35.14
2023-05-09T03:39:42.386Z,35.33
2023-05-09T03:41:44.177Z,35.27
2023-05-09T03:43:45.852Z,35.27
2023-05-09T03:45:47.418Z,35.02
2023-05-09T03:47:48.817Z,35.02
2023-05-09T03:49:50.290Z,35.22
2023-05-09T03:51:51.729Z,34.86
2023-05-09T03:53:58.958Z,35.05
2023-05-09T03:56:00.649Z,35.32
2023-05-09T03:58:02.863Z,35.13
2023-05-09T04:00:06.140Z,35.24
2023-05-09T04:02:09.311Z,35.29
2023-05-09T04:04:10.752Z,35.16
2023-05-09T04:06:12.409Z,35.31
2023-05-09T04:08:13.944Z,35.19
2023-05-09T04:10:15.908Z,35.19
2023-05-09T04:12:17.396Z,35.24
2023-05-09T04:14:18.776Z,35.10
2023-05-09T04:16:20.210Z,34.86
2023-05-09T04:18:22.112Z,35.19
2023-05-09T04:20:23.539Z,35.00
2023-05-09T04:22:25.079Z,35.27
2023-05-09T04:24:26.681Z,34.89
2023-05-09T04:26:28.202Z,35.08
2023-05-09T04:28:29.665Z,35.32
2023-05-09T04:30:31.427Z,35.10
2023-05-09T04:32:33.144Z,34.85
2023-05-09T04:34:34.776Z,35.17
2023-05-09T04:36:36.278Z,35.18
2023-05-09T04:38:37.868Z,35.20
2023-05-09T04:40:39.411Z,35.24
2023-05-09T04:42:41.377Z,35.19
2023-05-09T04:44:43.182Z,35.26
2023-05-09T04:46:44.815Z,35.13
2023-05-09T04:48:46.272Z,35.10
2023-05-09T04:50:48.582Z,35.21
2023-05-09T04:52:50.207Z,35.21
2023-05-09T04:54:51.635Z,35.02
2023-05-09T04:56:53.228Z,35.09
2023-05-09T04:58:57.760Z,35.12
2023-05-09T05:00:59.200Z,35.21
2023-05-09T05:03:00.755Z,34.86
2023-05-09T05:05:11.684Z,35.20
2023-05-09T05:07:13.924Z,35.08
2023-05-09T05:09:15.355Z,35.19
2023-05-09T05:11:18.104Z,34.97
2023-05-09T05:13:21.409Z,35.17
2023-05-09T05:15:23.158Z,34.85
2023-05-09T05:17:24.876Z,34.94
2023-05-09T05:19:26.466Z,34.86
2023-05-09T05:21:27.867Z,34.97
2023-05-09T05:23:29.333Z,35.11
2023-05-09T05:25:31.336Z,34.80
2023-05-09T05:27:32.808Z,35.06
2023-05-09T05:29:34.245Z,34.99
2023-05-09T05:31:36.276Z,34.75
2023-05-09T05:33:38.216Z,34.81
2023-05-09T05:35:39.685Z,34.73
2023-05-09T05:37:41.196Z,35.00
2023-05-09T05:39:42.598Z,34.99
2023-05-09T05:41:44.045Z,34.85
2023-05-09T05:43:45.571Z,34.61
2023-05-09T05:45:47.073Z,35.00
2023-05-09T05:47:48.518Z,34.83
2023-05-09T05:49:50.608Z,35.05
2023-05-09T05:51:52.110Z,34.79
2023-05-09T05:53:53.587Z,34.99
2023-05-09T05:55:55.085Z,34.99
2023-05-09T05:57:56.553Z,34.87
2023-05-09T05:59:58.158Z,34.99
2023-05-09T06:01:59.766Z,34.81
2023-05-09T06:04:01.391Z,34.95
2023-05-09T06:06:03.025Z,34.82
2023-05-09T06:08:04.719Z,34.64
2023-05-09T06:10:07.070Z,34.64
2023-05-09T06:12:08.956Z,34.98
2023-05-09T06:14:10.384Z,34.83
2023-05-09T06:16:19.223Z,34.66
2023-05-09T06:18:21.885Z,34.93
2023-05-09T06:20:23.360Z,34.51
2023-05-09T06:22:24.873Z,34.70
2023-05-09T06:24:35.882Z,35.00
2023-05-09T06:26:40.661Z,34.63
2023-05-09T06:28:42.066Z,34.77
2023-05-09T06:30:43.817Z,34.82
2023-05-09T06:32:45.315Z,34.91
2023-05-09T06:34:46.833Z,34.71
2023-05-09T06:36:48.333Z,34.85
2023-05-09T06:38:49.779Z,34.68
2023-05-09T06:40:51.410Z,34.64
2023-05-09T06:42:53.030Z,34.60
2023-05-09T06:44:54.523Z,34.69
2023-05-09T06:46:58.835Z,34.48
2023-05-09T06:49:01.910Z,34.72
2023-05-09T06:51:03.509Z,34.71
2023-05-09T06:53:05.102Z,34.62
2023-05-09T06:55:06.903Z,34.56
2023-05-09T06:57:08.367Z,34.69
2023-05-09T06:59:13.716Z,34.75
2023-05-09T07:01:15.489Z,34.56
2023-05-09T07:03:17.214Z,34.51
2023-05-09T07:05:18.880Z,34.45
2023-05-09T07:07:20.473Z,34.31
2023-05-09T07:09:23.662Z,34.27
2023-05-09T07:11:25.160Z,34.06
2023-05-09T07:13:26.768Z,34.19
2023-05-09T07:15:40.684Z,33.85
2023-05-09T07:17:43.851Z,34.03
2023-05-09T07:19:45.381Z,34.23
2023-05-09T07:21:46.788Z,34.07
2023-05-09T07:23:48.179Z,33.86
2023-05-09T07:25:49.626Z,34.05
2023-05-09T07:27:51.341Z,33.72
2023-05-09T07:29:52.885Z,34.04
2023-05-09T07:31:54.383Z,34.36
2023-05-09T07:33:55.920Z,34.36
2023-05-09T07:36:00.364Z,34.24
2023-05-09T07:38:01.872Z,34.42
2023-05-09T07:40:05.710Z,34.45
2023-05-09T07:42:08.324Z,34.22
2023-05-09T07:44:09.901Z,34.27
2023-05-09T07:46:11.390Z,34.36
2023-05-09T07:48:13.211Z,34.11
2023-05-09T07:50:14.824Z,34.30
2023-05-09T07:52:17.641Z,34.32
2023-05-09T07:54:19.079Z,34.36
2023-05-09T07:56:21.287Z,34.29
2023-05-09T07:58:22.859Z,34.21
2023-05-09T08:00:24.776Z,34.37
2023-05-09T08:02:26.324Z,34.51
2023-05-09T08:04:28.026Z,34.16
2023-05-09T08:06:29.525Z,34.37
2023-05-09T08:08:31.002Z,34.50
2023-05-09T08:10:33.685Z,34.33
2023-05-09T08:12:35.285Z,34.47
2023-05-09T08:14:36.695Z,34.48
2023-05-09T08:16:38.210Z,34.58
2023-05-09T08:18:39.674Z,34.62
2023-05-09T08:20:41.461Z,34.31
2023-05-09T08:22:43.038Z,34.56
2023-05-09T08:24:45.466Z,34.68
2023-05-09T08:26:47.076Z,34.45
2023-05-09T08:28:49.279Z,34.49
2023-05-09T08:30:51.427Z,34.79
2023-05-09T08:32:52.996Z,34.66
2023-05-09T08:34:54.440Z,34.32
2023-05-09T08:36:56.003Z,34.42
2023-05-09T08:38:57.421Z,34.53
2023-05-09T08:41:02.323Z,34.42
2023-05-09T08:43:06.086Z,34.43
2023-05-09T08:45:09.805Z,34.70
2023-05-09T08:47:11.673Z,34.43
2023-05-09T08:49:13.261Z,34.65
2023-05-09T08:51:16.068Z,34.77
2023-05-09T08:53:19.741Z,34.71
2023-05-09T08:55:21.637Z,34.65
2023-05-09T08:57:23.234Z,34.46
2023-05-09T08:59:24.868Z,34.70
2023-05-09T09:01:27.703Z,34.70
2023-05-09T09:03:29.804Z,34.68
2023-05-09T09:07:36.854Z,34.42
2023-05-09T09:09:39.404Z,34.87
2023-05-09T09:11:42.101Z,34.92
2023-05-09T09:13:44.013Z,34.69
2023-05-09T09:15:46.468Z,35.02
2023-05-09T09:17:51.012Z,34.72
2023-05-09T09:19:55.532Z,34.92
2023-05-09T09:21:59.063Z,34.57
2023-05-09T09:24:00.893Z,35.06
2023-05-09T09:26:04.406Z,34.78
2023-05-09T09:28:05.967Z,34.90
2023-05-09T09:30:11.407Z,34.90
2023-05-09T09:32:13.029Z,34.89
2023-05-09T09:34:20.619Z,34.97
2023-05-09T09:36:29.110Z,34.66
2023-05-09T09:38:39.445Z,34.72
2023-05-09T09:40:41.406Z,34.94
2023-05-09T09:42:43.141Z,34.87
2023-05-09T09:44:44.751Z,34.93
2023-05-09T09:46:48.478Z,34.97
2023-05-09T09:48:52.816Z,34.72
2023-05-09T09:50:55.960Z,34.96
2023-05-09T09:52:57.484Z,34.97
2023-05-09T09:54:59.944Z,34.95
2023-05-09T09:57:01.941Z,35.11
2023-05-09T09:59:13.969Z,34.95
2023-05-09T10:01:16.656Z,34.85
2023-05-09T10:03:18.324Z,35.31
2023-05-09T10:05:27.145Z,35.20
2023-05-09T10:07:33.555Z,35.01
2023-05-09T10:09:35.854Z,35.12
2023-05-09T10:11:37.419Z,35.10
2023-05-09T10:13:38.976Z,35.09
2023-05-09T10:15:52.368Z,35.31
2023-05-09T10:17:56.706Z,35.21
2023-05-09T10:20:00.139Z,34.83
2023-05-09T10:22:11.906Z,35.21
2023-05-09T10:24:13.547Z,35.03
2023-05-09T10:26:14.952Z,35.29
2023-05-09T10:28:18.294Z,35.09
2023-05-09T10:30:23.132Z,35.21
2023-05-09T10:32:27.872Z,35.34
2023-05-09T10:34:31.154Z,35.17
2023-05-09T10:36:32.923Z,34.97
2023-05-09T10:38:34.866Z,35.21
2023-05-09T10:40:36.300Z,35.02
2023-05-09T10:42:37.984Z,35.13
2023-05-09T10:44:39.665Z,35.42
2023-05-09T10:46:41.718Z,35.36
2023-05-09T10:48:43.699Z,35.42
2023-05-09T10:50:46.425Z,35.09
2023-05-09T10:53:03.783Z,35.42
2023-05-09T10:55:09.148Z,35.01
2023-05-09T10:57:10.687Z,35.35
2023-05-09T10:59:32.409Z,35.23
2023-05-09T11:01:37.281Z,35.35
2023-05-09T11:04:05.986Z,35.65
2023-05-09T11:06:07.496Z,36.05
2023-05-09T11:08:18.823Z,36.27
2023-05-09T11:10:20.257Z,36.37
2023-05-09T11:12:23.942Z,36.58
2023-05-09T11:14:28.938Z,36.75
2023-05-09T11:16:30.533Z,36.76
2023-05-09T11:18:32.768Z,36.95
2023-05-09T11:20:35.541Z,36.80
2023-05-09T11:22:41.362Z,36.79
2023-05-09T11:24:54.228Z,36.98
2023-05-09T11:26:56.193Z,37.11
2023-05-09T11:28:59.365Z,37.14
2023-05-09T11:31:09.536Z,37.23
2023-05-09T11:33:26.435Z,37.13
2023-05-09T11:35:28.040Z,37.32
2023-05-09T11:37:30.938Z,37.16
2023-05-09T11:39:32.430Z,37.32
2023-05-09T11:41:42.271Z,37.40
2023-05-09T11:43:46.469Z,37.61
2023-05-09T11:45:48.009Z,38.24
2023-05-09T11:47:50.825Z,38.29
2023-05-09T11:49:52.298Z,37.69
2023-05-09T11:51:53.879Z,38.13
2023-05-09T11:53:55.474Z,38.08
2023-05-09T11:55:56.978Z,37.94
2023-05-09T11:57:58.750Z,38.06
2023-05-09T12:00:01.318Z,37.94
2023-05-09T12:02:06.534Z,38.06
2023-05-09T12:04:08.787Z,38.16
2023-05-09T12:06:13.998Z,38.18
2023-05-09T12:08:16.157Z,38.37
2023-05-09T12:10:22.828Z,38.25
2023-05-09T12:12:24.462Z,38.39
2023-05-09T12:14:26.600Z,38.26
2023-05-09T12:16:28.233Z,38.18
2023-05-09T12:18:29.730Z,38.60
2023-05-09T12:20:41.199Z,38.52
2023-05-09T12:22:43.406Z,38.80
2023-05-09T12:24:44.843Z,38.73
2023-05-09T12:26:48.118Z,38.84
2023-05-09T12:28:50.063Z,38.55
2023-05-09T12:30:52.431Z,38.39
2023-05-09T12:32:54.115Z,38.81
2023-05-09T12:34:55.644Z,38.95
2023-05-09T12:36:58.459Z,38.89
2023-05-09T12:38:59.950Z,38.98
2023-05-09T12:41:03.859Z,39.42
2023-05-09T12:43:05.736Z,39.03
2023-05-09T12:45:10.744Z,39.12
2023-05-09T12:47:12.568Z,39.27
2023-05-09T12:49:21.257Z,39.38
2023-05-09T12:51:23.247Z,39.10
2023-05-09T12:53:25.711Z,39.12
2023-05-09T12:55:27.882Z,38.92
2023-05-09T12:57:31.447Z,39.14
2023-05-09T12:59:33.292Z,39.19
2023-05-09T13:01:35.837Z,39.23
2023-05-09T13:03:40.304Z,39.70
2023-05-09T13:05:41.782Z,39.42
2023-05-09T13:07:44.470Z,39.54
2023-05-09T13:09:57.023Z,39.67
2023-05-09T13:11:58.559Z,39.59
2023-05-09T13:14:00.390Z,39.56
2023-05-09T13:16:03.728Z,39.63
2023-05-09T13:18:05.363Z,39.95
2023-05-09T13:20:07.293Z,39.78
2023-05-09T13:22:10.465Z,39.76
2023-05-09T13:24:13.749Z,39.81
2023-05-09T13:26:15.385Z,39.91
2023-05-09T13:28:16.916Z,40.43
2023-05-09T13:30:18.828Z,40.88
2023-05-09T13:32:20.812Z,40.69
2023-05-09T13:34:22.525Z,40.67
2023-05-09T13:36:24.079Z,40.53
2023-05-09T13:38:25.850Z,40.61
2023-05-09T13:40:27.454Z,40.32
2023-05-09T13:42:28.876Z,40.20
2023-05-09T13:44:30.323Z,40.69
2023-05-09T13:46:31.823Z,40.70
2023-05-09T13:48:33.278Z,40.95
2023-05-09T13:50:34.717Z,40.80
2023-05-09T13:52:36.341Z,40.79
2023-05-09T13:54:37.815Z,41.40
2023-05-09T13:56:39.763Z,41.75
2023-05-09T13:58:41.346Z,41.92
2023-05-09T14:00:43.116Z,41.44
2023-05-09T14:02:44.701Z,41.46
2023-05-09T14:04:46.178Z,41.84
2023-05-09T14:06:48.298Z,41.58
2023-05-09T14:08:49.870Z,41.56
2023-05-09T14:10:51.365Z,41.41
2023-05-09T14:12:53.415Z,41.72
2023-05-09T14:14:54.898Z,41.79
2023-05-09T14:16:56.715Z,41.65
2023-05-09T14:18:58.443Z,41.81
2023-05-09T14:20:59.895Z,41.72
2023-05-09T14:23:01.568Z,41.82
2023-05-09T14:25:03.054Z,42.27
2023-05-09T14:27:04.498Z,41.99
2023-05-09T14:29:06.385Z,42.05
2023-05-09T14:31:08.074Z,42.24
2023-05-09T14:33:09.593Z,41.93
2023-05-09T14:35:11.279Z,41.89
2023-05-09T14:37:15.628Z,41.71
2023-05-09T14:39:17.280Z,41.80
2023-05-09T14:41:21.328Z,41.87
2023-05-09T14:43:23.380Z,42.12
2023-05-09T14:45:25.260Z,41.61
2023-05-09T14:47:26.818Z,41.65
2023-05-09T14:49:28.596Z,41.63
2023-05-09T14:51:31.417Z,41.91
2023-05-09T14:53:35.419Z,42.13
2023-05-09T14:55:37.334Z,41.97
2023-05-09T14:57:38.870Z,42.29
2023-05-09T14:59:40.294Z,41.84
2023-05-09T15:01:41.952Z,42.05
2023-05-09T15:03:43.521Z,41.93
2023-05-09T15:05:45.048Z,42.09
2023-05-09T15:07:46.556Z,42.17
2023-05-09T15:09:48.228Z,42.28
2023-05-09T15:11:49.732Z,42.12
2023-05-09T15:13:53.116Z,42.17
2023-05-09T15:15:54.696Z,41.98
2023-05-09T15:17:56.717Z,42.02
2023-05-09T15:19:58.234Z,42.14
2023-05-09T15:21:59.944Z,42.11
2023-05-09T15:24:02.224Z,42.21
2023-05-09T15:26:04.078Z,42.13
2023-05-09T15:28:06.947Z,42.17
2023-05-09T15:30:08.838Z,42.14
2023-05-09T15:32:10.327Z,42.06
2023-05-09T15:34:11.798Z,42.16
2023-05-09T15:36:13.537Z,42.16
2023-05-09T15:38:15.449Z,41.82
2023-05-09T15:40:17.201Z,42.29
2023-05-09T15:42:19.262Z,42.28
2023-05-09T15:44:20.886Z,42.24
2023-05-09T15:46:22.331Z,42.27
2023-05-09T15:48:24.777Z,42.13
2023-05-09T15:50:26.324Z,42.35
2023-05-09T15:52:27.876Z,42.39
2023-05-09T15:54:29.650Z,42.43
2023-05-09T15:56:31.210Z,42.32
2023-05-09T15:58:32.762Z,42.03
2023-05-09T16:00:34.420Z,42.12
2023-05-09T16:02:36.154Z,41.95
2023-05-09T16:04:38.392Z,41.88
2023-05-09T16:06:40.500Z,41.96
2023-05-09T16:08:42.036Z,42.28
2023-05-09T16:10:43.751Z,42.01
2023-05-09T16:12:45.313Z,42.07
2023-05-09T16:14:47.740Z,41.88
2023-05-09T16:16:50.493Z,41.92
2023-05-09T16:18:52.088Z,42.02
2023-05-09T16:20:53.617Z,41.98
2023-05-09T16:22:55.253Z,41.90
2023-05-09T16:24:56.803Z,41.63
2023-05-09T16:26:58.543Z,41.67
2023-05-09T16:29:01.177Z,41.59
2023-05-09T16:31:04.820Z,41.33
2023-05-09T16:33:06.604Z,41.44
2023-05-09T16:35:08.358Z,41.78
2023-05-09T16:37:09.877Z,41.68
2023-05-09T16:39:11.423Z,41.55
2023-05-09T16:41:13.089Z,41.66
2023-05-09T16:43:16.382Z,41.65
2023-05-09T16:45:17.876Z,41.41
2023-05-09T16:47:19.347Z,41.37
2023-05-09T16:49:20.824Z,41.21
2023-05-09T16:51:22.338Z,41.33
2023-05-09T16:53:24.492Z,41.47
2023-05-09T16:55:27.312Z,41.57
2023-05-09T16:57:28.959Z,41.55
2023-05-09T16:59:30.772Z,41.34
2023-05-09T17:01:32.678Z,41.19
2023-05-09T17:03:34.261Z,41.64
2023-05-09T17:05:35.727Z,42.18
2023-05-09T17:07:37.228Z,42.66
2023-05-09T17:09:38.869Z,42.90
2023-05-09T17:11:40.311Z,42.63
2023-05-09T17:13:42.964Z,42.70
2023-05-09T17:15:44.394Z,42.84
2023-05-09T17:17:47.386Z,42.13
2023-05-09T17:19:48.827Z,42.16
2023-05-09T17:21:50.297Z,42.17
2023-05-09T17:23:53.901Z,42.65
2023-05-09T17:25:55.568Z,42.54
2023-05-09T17:27:57.164Z,42.97
2023-05-09T17:29:58.630Z,42.60
2023-05-09T17:32:03.177Z,42.51
2023-05-09T17:34:05.673Z,42.48
2023-05-09T17:36:07.422Z,42.31
2023-05-09T17:38:08.988Z,42.14
2023-05-09T17:40:10.694Z,42.83
2023-05-09T17:42:12.664Z,43.26
2023-05-09T17:44:14.497Z,42.76
2023-05-09T17:46:16.056Z,42.99
2023-05-09T17:48:18.185Z,43.70
2023-05-09T17:50:20.778Z,43.64
2023-05-09T17:52:22.328Z,43.23
2023-05-09T17:54:26.720Z,43.21
2023-05-09T17:56:28.193Z,42.81
2023-05-09T17:58:29.972Z,42.33
2023-05-09T18:00:32.422Z,42.16
2023-05-09T18:02:33.940Z,41.77
2023-05-09T18:04:35.808Z,42.10
2023-05-09T18:06:37.306Z,41.85
2023-05-09T18:08:38.698Z,41.91
2023-05-09T18:10:41.114Z,41.67
2023-05-09T18:12:45.093Z,41.74
2023-05-09T18:14:47.675Z,41.74
2023-05-09T18:16:49.390Z,41.51
2023-05-09T18:18:50.895Z,41.55
2023-05-09T18:20:52.315Z,41.46
2023-05-09T18:22:54.374Z,41.38
2023-05-09T18:24:56.135Z,41.71
2023-05-09T18:26:57.962Z,41.38
2023-05-09T18:28:59.371Z,41.64
2023-05-09T18:31:01.315Z,41.47
2023-05-09T18:33:03.084Z,41.33
2023-05-09T18:35:05.560Z,41.62
2023-05-09T18:37:07.588Z,41.57
2023-05-09T18:39:11.593Z,41.71
2023-05-09T18:41:13.719Z,41.79
2023-05-09T18:43:16.955Z,42.26
2023-05-09T18:45:18.569Z,42.25
2023-05-09T18:47:20.078Z,42.22
2023-05-09T18:49:24.779Z,42.08
2023-05-09T18:51:26.342Z,41.91
2023-05-09T18:53:28.808Z,41.81
2023-05-09T18:55:30.664Z,42.29
2023-05-09T18:57:33.880Z,42.02
2023-05-09T18:59:35.416Z,41.83
2023-05-09T19:01:37.856Z,41.95
2023-05-09T19:03:45.755Z,41.96
2023-05-09T19:05:47.480Z,41.79
2023-05-09T19:07:48.991Z,42.00
2023-05-09T19:09:50.603Z,41.66
2023-05-09T19:11:52.311Z,41.80
2023-05-09T19:13:54.139Z,41.93
2023-05-09T19:15:55.793Z,41.94
2023-05-09T19:17:57.447Z,41.96
2023-05-09T19:20:00.924Z,42.33
2023-05-09T19:22:02.487Z,42.33
2023-05-09T19:24:04.685Z,42.33
2023-05-09T19:26:06.214Z,42.39
2023-05-09T19:28:07.833Z,42.27
2023-05-09T19:30:09.499Z,42.67
2023-05-09T19:32:11.319Z,42.72
2023-05-09T19:34:13.540Z,42.99
2023-05-09T19:36:15.299Z,43.12
2023-05-09T19:38:17.412Z,43.05
2023-05-09T19:40:19.208Z,43.01
2023-05-09T19:42:21.453Z,42.96
2023-05-09T19:44:22.922Z,42.97
2023-05-09T19:46:24.662Z,43.04
2023-05-09T19:48:26.518Z,43.07
2023-05-09T19:50:28.049Z,43.19
2023-05-09T19:52:32.308Z,43.09
2023-05-09T19:54:33.790Z,43.16
2023-05-09T19:56:35.200Z,43.19
2023-05-09T19:58:36.772Z,43.17
2023-05-09T20:00:38.872Z,43.56
2023-05-09T20:02:40.607Z,43.55
2023-05-09T20:04:46.951Z,43.38
2023-05-09T20:06:48.657Z,43.44
2023-05-09T20:08:51.999Z,43.61
2023-05-09T20:10:53.918Z,43.60
2023-05-09T20:12:58.135Z,43.94
2023-05-09T20:14:59.590Z,44.37
2023-05-09T20:17:01.520Z,45.29
2023-05-09T20:19:05.144Z,44.28
2023-05-09T20:21:09.708Z,43.49
2023-05-09T20:23:11.285Z,43.41
2023-05-09T20:25:13.557Z,43.22
2023-05-09T20:27:14.971Z,43.14
2023-05-09T20:29:16.484Z,43.35
2023-05-09T20:31:17.925Z,43.14
2023-05-09T20:33:19.365Z,43.42
2023-05-09T20:35:20.825Z,42.90
2023-05-09T20:37:22.262Z,42.97
2023-05-09T20:39:24.706Z,42.80
2023-05-09T20:41:26.369Z,42.62
2023-05-09T20:43:28.426Z,42.96
2023-05-09T20:45:30.945Z,42.73
2023-05-09T20:47:32.531Z,42.54
2023-05-09T20:49:34.011Z,42.25
2023-05-09T20:51:35.477Z,42.63
2023-05-09T20:53:37.700Z,42.64
2023-05-09T20:55:39.334Z,42.38
2023-05-09T20:57:40.789Z,42.62
2023-05-09T20:59:42.469Z,42.27
2023-05-09T21:01:44.012Z,42.74
2023-05-09T21:03:45.651Z,42.42
2023-05-09T21:05:47.172Z,42.19
2023-05-09T21:07:48.724Z,41.81
2023-05-09T21:09:50.821Z,41.61
2023-05-09T21:11:52.459Z,41.21
2023-05-09T21:13:54.097Z,41.06
2023-05-09T21:15:55.691Z,41.01
2023-05-09T21:17:57.224Z,40.90
2023-05-09T21:19:58.766Z,40.85
2023-05-09T21:22:00.377Z,40.78
2023-05-09T21:24:08.843Z,40.66
2023-05-09T21:26:10.348Z,40.25
2023-05-09T21:28:11.861Z,40.42
2023-05-09T21:30:13.426Z,40.17
2023-05-09T21:32:16.632Z,40.07
2023-05-09T21:34:18.805Z,40.17
2023-05-09T21:36:20.285Z,39.94
2023-05-09T21:38:21.859Z,40.18
2023-05-09T21:40:23.331Z,40.36
2023-05-09T21:42:24.819Z,40.17
2023-05-09T21:44:26.355Z,40.01
2023-05-09T21:46:27.937Z,39.91
2023-05-09T21:48:29.535Z,39.74
2023-05-09T21:50:31.214Z,39.84
2023-05-09T21:52:32.856Z,39.92
2023-05-09T21:54:34.298Z,39.77
2023-05-09T21:56:35.808Z,39.46
2023-05-09T21:58:37.575Z,39.85
2023-05-09T22:00:38.958Z,39.85
2023-05-09T22:02:42.533Z,39.70
2023-05-09T22:04:44.210Z,40.16
2023-05-09T22:06:45.629Z,40.22
2023-05-09T22:08:47.290Z,39.89
2023-05-09T22:10:48.873Z,39.69
2023-05-09T22:12:50.309Z,39.70
2023-05-09T22:14:56.277Z,39.88
2023-05-09T22:16:58.742Z,39.53
2023-05-09T22:19:00.156Z,39.16
2023-05-09T22:21:01.699Z,39.66
2023-05-09T22:23:03.418Z,40.34
2023-05-09T22:25:05.031Z,40.05
2023-05-09T22:27:06.871Z,39.79
2023-05-09T22:29:08.587Z,39.73
2023-05-09T22:31:10.529Z,39.67
2023-05-09T22:33:12.050Z,39.52
2023-05-09T22:35:13.625Z,39.60
2023-05-09T22:37:15.210Z,39.39
2023-05-09T22:39:16.822Z,39.18
2023-05-09T22:41:18.381Z,39.25
2023-05-09T22:43:20.361Z,39.25
2023-05-09T22:45:22.166Z,39.33
2023-05-09T22:47:23.639Z,39.27
2023-05-09T22:49:25.138Z,39.23
2023-05-09T22:51:27.705Z,39.30
2023-05-09T22:53:29.444Z,39.20
2023-05-09T22:55:30.912Z,39.29
2023-05-09T22:57:32.453Z,39.19
2023-05-09T22:59:34.389Z,39.22
2023-05-09T23:01:36.322Z,38.89
2023-05-09T23:03:38.095Z,39.30
2023-05-09T23:05:39.685Z,39.16
2023-05-09T23:07:41.364Z,39.09
2023-05-09T23:09:42.921Z,38.95
2023-05-09T23:11:44.358Z,39.01
2023-05-09T23:13:45.777Z,38.84
2023-05-09T23:15:48.105Z,38.96
2023-05-09T23:17:49.661Z,38.85
2023-05-09T23:19:51.194Z,38.61
2023-05-09T23:21:53.133Z,38.82
2023-05-09T23:23:54.939Z,38.74
2023-05-09T23:25:56.599Z,38.26
2023-05-09T23:27:58.105Z,38.87
2023-05-09T23:29:59.553Z,38.47
2023-05-09T23:32:01.054Z,38.28
2023-05-09T23:34:02.550Z,38.34
2023-05-09T23:36:04.349Z,38.41
2023-05-09T23:38:05.839Z,38.20
2023-05-09T23:40:07.682Z,38.00
2023-05-09T23:42:09.089Z,38.14
2023-05-09T23:44:11.065Z,38.01
2023-05-09T23:46:12.665Z,38.10
2023-05-09T23:48:14.220Z,38.07
2023-05-09T23:50:15.898Z,37.93
2023-05-09T23:52:17.422Z,37.72
2023-05-09T23:54:21.239Z,38.09
2023-05-09T23:56:22.891Z,38.08
2023-05-09T23:58:24.676Z,37.84
